createdAt,value
2019-03-05T00:00:58.057Z,7.42
2019-03-05T00:01:58.322Z,7.31
2019-03-05T00:02:58.334Z,7.3
2019-03-05T00:03:58.348Z,7.4
2019-03-05T00:04:58.364Z,7.34
2019-03-05T00:05:58.379Z,7.4
2019-03-05T00:06:58.393Z,7.53
2019-03-05T00:07:58.412Z,7.48
2019-03-05T00:08:58.427Z,7.46
2019-03-05T00:09:58.534Z,7.46
2019-03-05T00:10:58.457Z,7.45
2019-03-05T00:11:58.479Z,7.45
2019-03-05T00:13:13.152Z,7.4
2019-03-05T00:13:58.505Z,7.39
2019-03-05T00:15:13.185Z,7.4
2019-03-05T00:15:58.537Z,7.46
2019-03-05T00:16:58.560Z,7.34
2019-03-05T00:17:58.569Z,7.34
2019-03-05T00:18:58.587Z,7.34
2019-03-05T00:19:58.606Z,7.39
2019-03-05T00:20:58.617Z,7.39
2019-03-05T00:21:58.638Z,7.24
2019-03-05T00:24:58.682Z,7.23
2019-03-05T00:25:58.718Z,7.24
2019-03-05T00:26:58.731Z,7.3
2019-03-05T00:27:58.807Z,7.24
2019-03-05T00:28:58.750Z,7.24
2019-03-05T00:29:58.770Z,7.23
2019-03-05T00:31:58.791Z,7.32
2019-03-05T00:32:58.815Z,7.39
2019-03-05T00:33:58.824Z,7.39
2019-03-05T00:34:58.838Z,7.39
2019-03-05T00:36:58.872Z,7.35
2019-03-05T00:37:58.893Z,7.53
2019-03-05T00:40:13.682Z,7.58
2019-03-05T00:41:13.601Z,7.57
2019-03-05T00:41:58.957Z,7.58
2019-03-05T00:42:59.966Z,7.58
2019-03-05T00:43:58.983Z,7.64
2019-03-05T00:44:58.997Z,7.61
2019-03-05T00:45:59.015Z,7.61
2019-03-05T00:47:13.692Z,7.68
2019-03-05T00:47:59.148Z,7.68
2019-03-05T00:48:59.065Z,7.68
2019-03-05T00:49:59.077Z,7.69
2019-03-05T00:50:59.092Z,7.63
2019-03-05T00:51:59.113Z,7.63
2019-03-05T00:52:59.125Z,7.6
2019-03-05T00:53:59.140Z,7.61
2019-03-05T00:54:59.156Z,7.6
2019-03-05T00:56:13.839Z,7.57
2019-03-05T00:56:59.190Z,7.63
2019-03-05T00:57:59.206Z,7.58
2019-03-05T00:58:59.226Z,7.64
2019-03-05T00:59:59.246Z,7.55
2019-03-05T01:00:59.253Z,7.6
2019-03-05T01:02:13.934Z,7.74
2019-03-05T01:02:59.286Z,7.64
2019-03-05T01:03:59.303Z,7.77
2019-03-05T01:04:59.321Z,7.68
2019-03-05T01:05:59.333Z,7.72
2019-03-05T01:07:59.369Z,7.77
2019-03-05T01:08:59.489Z,7.72
2019-03-05T01:09:59.400Z,7.68
2019-03-05T01:10:59.414Z,7.74
2019-03-05T01:13:14.110Z,7.8
2019-03-05T01:14:14.124Z,7.8
2019-03-05T01:14:59.479Z,7.77
2019-03-05T01:15:59.501Z,7.77
2019-03-05T01:16:59.511Z,7.82
2019-03-05T01:17:59.531Z,7.82
2019-03-05T01:18:59.540Z,7.8
2019-03-05T01:19:59.556Z,7.74
2019-03-05T01:21:59.590Z,7.85
2019-03-05T01:22:59.355Z,7.77
2019-03-05T01:24:59.700Z,7.83
2019-03-05T01:25:59.403Z,7.71
2019-03-05T01:26:59.670Z,7.64
2019-03-05T01:27:59.688Z,7.79
2019-03-05T01:28:59.708Z,7.82
2019-03-05T01:29:59.786Z,7.77
2019-03-05T01:30:59.482Z,7.71
2019-03-05T01:31:59.755Z,7.69
2019-03-05T01:32:59.769Z,7.58
2019-03-05T01:34:14.445Z,7.63
2019-03-05T01:34:59.796Z,7.69
2019-03-05T01:35:59.568Z,7.63
2019-03-05T01:36:59.828Z,7.52
2019-03-05T01:37:59.845Z,7.64
2019-03-05T01:39:59.881Z,7.55
2019-03-05T01:40:59.899Z,7.5
2019-03-05T01:41:59.910Z,7.35
2019-03-05T01:43:59.943Z,7.31
2019-03-05T01:44:59.959Z,7.24
2019-03-05T01:45:59.726Z,7.25
2019-03-05T01:46:59.740Z,7.25
2019-03-05T01:48:00.002Z,7.07
2019-03-05T01:49:00.019Z,7.07
2019-03-05T01:50:14.701Z,7.1
2019-03-05T01:51:00.056Z,7.15
2019-03-05T01:52:00.075Z,6.94
2019-03-05T01:53:00.082Z,6.99
2019-03-05T01:54:00.099Z,6.97
2019-03-05T01:55:00.327Z,6.97
2019-03-05T01:56:00.131Z,6.97
2019-03-05T01:57:00.145Z,6.98
2019-03-05T01:57:59.920Z,6.97
2019-03-05T02:00:00.348Z,6.79
2019-03-05T02:01:00.218Z,6.85
2019-03-05T02:02:14.891Z,6.81
2019-03-05T02:03:00.242Z,6.88
2019-03-05T02:04:00.259Z,6.92
2019-03-05T02:05:00.397Z,6.74
2019-03-05T02:06:14.953Z,6.69
2019-03-05T02:07:00.303Z,6.79
2019-03-05T02:08:00.322Z,6.76
2019-03-05T02:09:00.338Z,6.79
2019-03-05T02:10:00.457Z,6.69
2019-03-05T02:11:00.369Z,6.74
2019-03-05T02:12:00.386Z,6.77
2019-03-05T02:13:00.400Z,6.7
2019-03-05T02:14:00.418Z,6.76
2019-03-05T02:15:00.430Z,6.8
2019-03-05T02:16:00.446Z,6.76
2019-03-05T02:17:15.128Z,6.79
2019-03-05T02:18:00.477Z,6.88
2019-03-05T02:19:00.494Z,6.81
2019-03-05T02:20:00.514Z,6.79
2019-03-05T02:21:00.525Z,6.77
2019-03-05T02:22:15.305Z,6.81
2019-03-05T02:23:00.561Z,6.8
2019-03-05T02:24:00.583Z,6.79
2019-03-05T02:25:00.590Z,6.84
2019-03-05T02:26:00.671Z,6.88
2019-03-05T02:27:00.621Z,6.95
2019-03-05T02:28:00.636Z,6.92
2019-03-05T02:29:00.651Z,6.87
2019-03-05T02:30:00.794Z,6.94
2019-03-05T02:31:00.686Z,6.89
2019-03-05T02:32:00.704Z,6.92
2019-03-05T02:33:00.732Z,6.89
2019-03-05T02:34:00.736Z,6.89
2019-03-05T02:35:15.426Z,6.88
2019-03-05T02:36:00.775Z,6.91
2019-03-05T02:37:15.447Z,6.85
2019-03-05T02:38:00.796Z,6.84
2019-03-05T02:39:00.814Z,6.79
2019-03-05T02:41:00.839Z,6.76
2019-03-05T02:42:00.636Z,6.87
2019-03-05T02:43:00.882Z,6.79
2019-03-05T02:44:00.901Z,6.77
2019-03-05T02:45:00.907Z,6.71
2019-03-05T02:46:00.921Z,6.74
2019-03-05T02:47:15.600Z,6.7
2019-03-05T02:48:15.615Z,6.74
2019-03-05T02:49:00.982Z,6.71
2019-03-05T02:50:00.985Z,6.74
2019-03-05T02:51:01.005Z,6.67
2019-03-05T02:52:01.027Z,6.71
2019-03-05T02:53:02.859Z,6.71
2019-03-05T02:54:01.045Z,6.71
2019-03-05T02:55:01.062Z,6.62
2019-03-05T02:56:01.103Z,6.69
2019-03-05T02:57:01.104Z,6.76
2019-03-05T02:58:01.112Z,6.62
2019-03-05T02:59:01.124Z,6.66
2019-03-05T03:00:01.181Z,6.64
2019-03-05T03:02:01.190Z,6.66
2019-03-05T03:03:01.189Z,6.66
2019-03-05T03:04:01.218Z,6.67
2019-03-05T03:05:01.220Z,6.59
2019-03-05T03:06:15.893Z,6.59
2019-03-05T03:07:01.338Z,6.58
2019-03-05T03:08:01.270Z,6.62
2019-03-05T03:09:15.944Z,6.64
2019-03-05T03:10:01.299Z,6.59
2019-03-05T03:11:01.308Z,6.62
2019-03-05T03:12:01.331Z,6.64
2019-03-05T03:13:01.347Z,6.58
2019-03-05T03:14:01.362Z,6.61
2019-03-05T03:15:01.383Z,6.64
2019-03-05T03:16:01.390Z,6.73
2019-03-05T03:17:16.070Z,6.64
2019-03-05T03:18:01.423Z,6.67
2019-03-05T03:19:01.435Z,6.73
2019-03-05T03:21:01.578Z,6.79
2019-03-05T03:22:16.142Z,6.71
2019-03-05T03:23:01.505Z,6.7
2019-03-05T03:24:01.523Z,6.73
2019-03-05T03:25:16.271Z,6.81
2019-03-05T03:26:01.559Z,6.8
2019-03-05T03:27:16.230Z,6.84
2019-03-05T03:28:01.591Z,6.91
2019-03-05T03:29:01.590Z,6.95
2019-03-05T03:31:01.410Z,6.84
2019-03-05T03:32:01.747Z,6.98
2019-03-05T03:33:16.320Z,6.95
2019-03-05T03:34:01.686Z,6.99
2019-03-05T03:35:01.785Z,7.05
2019-03-05T03:36:01.712Z,6.98
2019-03-05T03:37:01.728Z,7.07
2019-03-05T03:38:01.747Z,6.98
2019-03-05T03:39:01.746Z,7.12
2019-03-05T03:40:01.768Z,6.98
2019-03-05T03:41:16.437Z,6.95
2019-03-05T03:42:16.470Z,7.06
2019-03-05T03:43:01.819Z,7.05
2019-03-05T03:44:01.932Z,7.05
2019-03-05T03:45:01.839Z,7.13
2019-03-05T03:46:16.297Z,7.12
2019-03-05T03:47:01.881Z,7.07
2019-03-05T03:48:01.897Z,7.09
2019-03-05T03:49:01.906Z,7.15
2019-03-05T03:50:01.943Z,7.12
2019-03-05T03:51:01.690Z,7.27
2019-03-05T03:52:01.954Z,7.23
2019-03-05T03:53:01.981Z,7.28
2019-03-05T03:54:01.988Z,7.25
2019-03-05T03:55:02.008Z,7.24
2019-03-05T03:56:02.011Z,7.24
2019-03-05T03:57:16.688Z,7.35
2019-03-05T03:58:02.063Z,7.32
2019-03-05T03:59:16.731Z,7.35
2019-03-05T04:00:02.073Z,7.32
2019-03-05T04:01:02.096Z,7.43
2019-03-05T04:02:02.115Z,7.42
2019-03-05T04:03:02.143Z,7.4
2019-03-05T04:04:02.265Z,7.4
2019-03-05T04:05:02.160Z,7.43
2019-03-05T04:06:02.184Z,7.48
2019-03-05T04:07:02.195Z,7.45
2019-03-05T04:08:02.225Z,7.45
2019-03-05T04:09:02.265Z,7.48
2019-03-05T04:10:02.233Z,7.5
2019-03-05T04:11:02.253Z,7.52
2019-03-05T04:12:16.924Z,7.46
2019-03-05T04:13:02.293Z,7.49
2019-03-05T04:14:04.642Z,7.5
2019-03-05T04:15:02.319Z,7.5
2019-03-05T04:16:02.346Z,7.49
2019-03-05T04:17:02.367Z,7.58
2019-03-05T04:18:02.379Z,7.68
2019-03-05T04:19:02.379Z,7.61
2019-03-05T04:20:02.396Z,7.6
2019-03-05T04:21:02.411Z,7.63
2019-03-05T04:22:02.432Z,7.55
2019-03-05T04:23:02.440Z,7.63
2019-03-05T04:24:02.474Z,7.63
2019-03-05T04:25:02.792Z,7.63
2019-03-05T04:26:02.487Z,7.68
2019-03-05T04:27:02.501Z,7.74
2019-03-05T04:28:02.523Z,7.61
2019-03-05T04:29:02.533Z,7.64
2019-03-05T04:30:02.791Z,7.69
2019-03-05T04:31:02.566Z,7.67
2019-03-05T04:32:02.576Z,7.6
2019-03-05T04:33:02.595Z,7.68
2019-03-05T04:34:02.721Z,7.71
2019-03-05T04:35:02.681Z,7.72
2019-03-05T04:36:02.646Z,7.67
2019-03-05T04:37:02.655Z,7.74
2019-03-05T04:38:02.672Z,7.71
2019-03-05T04:39:02.662Z,7.64
2019-03-05T04:40:05.603Z,7.67
2019-03-05T04:42:02.709Z,7.71
2019-03-05T04:43:02.726Z,7.64
2019-03-05T04:45:02.758Z,7.67
2019-03-05T04:46:02.777Z,7.64
2019-03-05T04:47:02.790Z,7.68
2019-03-05T04:48:02.813Z,7.69
2019-03-05T04:49:02.819Z,7.69
2019-03-05T04:50:17.508Z,7.63
2019-03-05T04:51:17.524Z,7.61
2019-03-05T04:52:02.866Z,7.69
2019-03-05T04:53:02.909Z,7.72
2019-03-05T04:54:02.900Z,7.69
2019-03-05T04:55:02.914Z,7.63
2019-03-05T04:56:02.985Z,7.55
2019-03-05T04:57:02.960Z,7.74
2019-03-05T04:58:02.965Z,7.63
2019-03-05T04:59:02.979Z,7.67
2019-03-05T05:00:17.768Z,7.6
2019-03-05T05:01:03.012Z,7.58
2019-03-05T05:02:03.024Z,7.67
2019-03-05T05:03:03.332Z,7.6
2019-03-05T05:04:03.165Z,7.68
2019-03-05T05:05:03.123Z,7.53
2019-03-05T05:06:03.090Z,7.6
2019-03-05T05:07:03.107Z,7.63
2019-03-05T05:08:03.122Z,7.63
2019-03-05T05:10:03.153Z,7.61
2019-03-05T05:11:03.173Z,7.67
2019-03-05T05:12:03.188Z,7.6
2019-03-05T05:13:03.203Z,7.61
2019-03-05T05:14:03.217Z,7.53
2019-03-05T05:15:03.295Z,7.52
2019-03-05T05:16:17.925Z,7.49
2019-03-05T05:17:03.264Z,7.61
2019-03-05T05:18:03.279Z,7.61
2019-03-05T05:19:17.969Z,7.63
2019-03-05T05:20:03.311Z,7.61
2019-03-05T05:21:03.339Z,7.61
2019-03-05T05:22:18.014Z,7.63
2019-03-05T05:23:03.357Z,7.63
2019-03-05T05:24:03.372Z,7.68
2019-03-05T05:26:03.408Z,7.55
2019-03-05T05:28:03.437Z,7.58
2019-03-05T05:29:03.214Z,7.63
2019-03-05T05:30:03.473Z,7.63
2019-03-05T05:31:03.483Z,7.64
2019-03-05T05:32:18.172Z,7.58
2019-03-05T05:33:03.530Z,7.69
2019-03-05T05:34:03.534Z,7.57
2019-03-05T05:35:03.562Z,7.64
2019-03-05T05:36:03.564Z,7.69
2019-03-05T05:37:03.581Z,7.63
2019-03-05T05:38:03.598Z,7.57
2019-03-05T05:39:03.608Z,7.72
2019-03-05T05:40:04.803Z,7.64
2019-03-05T05:41:03.696Z,7.57
2019-03-05T05:42:03.658Z,7.71
2019-03-05T05:45:03.712Z,7.57
2019-03-05T05:46:03.740Z,7.71
2019-03-05T05:47:18.416Z,7.63
2019-03-05T05:48:03.753Z,7.61
2019-03-05T05:49:03.770Z,7.61
2019-03-05T05:50:03.803Z,7.61
2019-03-05T05:52:03.820Z,7.63
2019-03-05T05:53:03.843Z,7.63
2019-03-05T05:54:03.847Z,7.57
2019-03-05T05:55:03.865Z,7.58
2019-03-05T05:56:03.879Z,7.61
2019-03-05T05:57:03.898Z,7.57
2019-03-05T05:59:03.926Z,7.61
2019-03-05T06:00:03.946Z,7.58
2019-03-05T06:01:04.041Z,7.6
2019-03-05T06:02:03.975Z,7.61
2019-03-05T06:03:04.005Z,7.6
2019-03-05T06:05:04.024Z,7.6
2019-03-05T06:06:04.039Z,7.63
2019-03-05T06:07:04.051Z,7.74
2019-03-05T06:08:04.069Z,7.71
2019-03-05T06:09:04.085Z,7.75
2019-03-05T06:10:04.101Z,7.68
2019-03-05T06:11:04.114Z,7.63
2019-03-05T06:12:04.130Z,7.63
2019-03-05T06:13:04.157Z,7.74
2019-03-05T06:14:04.169Z,7.72
2019-03-05T06:16:04.199Z,7.67
2019-03-05T06:17:04.314Z,7.74
2019-03-05T06:18:04.226Z,7.72
2019-03-05T06:20:04.265Z,7.75
2019-03-05T06:21:04.273Z,7.69
2019-03-05T06:22:04.292Z,7.68
2019-03-05T06:23:04.308Z,7.8
2019-03-05T06:24:04.323Z,7.77
2019-03-05T06:25:19.009Z,7.77
2019-03-05T06:26:04.354Z,7.77
2019-03-05T06:27:04.368Z,7.67
2019-03-05T06:28:04.387Z,7.75
2019-03-05T06:29:04.403Z,7.77
2019-03-05T06:30:04.418Z,7.79
2019-03-05T06:31:04.435Z,7.64
2019-03-05T06:32:04.457Z,7.74
2019-03-05T06:33:04.591Z,7.72
2019-03-05T06:34:04.505Z,7.75
2019-03-05T06:35:19.184Z,7.72
2019-03-05T06:38:04.582Z,7.72
2019-03-05T06:39:04.585Z,7.86
2019-03-05T06:40:04.600Z,7.86
2019-03-05T06:41:04.617Z,7.85
2019-03-05T06:42:19.307Z,7.85
2019-03-05T06:43:04.655Z,7.82
2019-03-05T06:44:04.668Z,7.8
2019-03-05T06:46:04.782Z,7.9
2019-03-05T06:47:04.717Z,7.85
2019-03-05T06:48:04.733Z,7.89
2019-03-05T06:49:04.745Z,7.86
2019-03-05T06:50:04.767Z,7.85
2019-03-05T06:51:19.539Z,7.85
2019-03-05T06:52:04.796Z,7.86
2019-03-05T06:53:04.821Z,7.9
2019-03-05T06:54:04.827Z,7.85
2019-03-05T06:55:04.839Z,7.9
2019-03-05T06:56:04.857Z,7.85
2019-03-05T06:57:04.625Z,7.95
2019-03-05T06:58:04.975Z,7.98
2019-03-05T06:59:04.909Z,7.9
2019-03-05T07:00:05.138Z,8
2019-03-05T07:01:19.601Z,8.01
2019-03-05T07:03:19.631Z,8.05
2019-03-05T07:04:04.740Z,8
2019-03-05T07:06:05.017Z,8.04
2019-03-05T07:07:19.704Z,8.04
2019-03-05T07:08:05.058Z,8.11
2019-03-05T07:09:05.067Z,8.19
2019-03-05T07:10:05.303Z,8.19
2019-03-05T07:11:05.098Z,8.16
2019-03-05T07:12:05.123Z,8.2
2019-03-05T07:13:05.133Z,8.2
2019-03-05T07:14:05.150Z,8.22
2019-03-05T07:15:05.172Z,8.19
2019-03-05T07:16:05.180Z,8.2
2019-03-05T07:17:05.207Z,8.26
2019-03-05T07:18:05.217Z,8.26
2019-03-05T07:19:19.890Z,8.38
2019-03-05T07:20:05.276Z,8.25
2019-03-05T07:21:05.269Z,8.18
2019-03-05T07:22:19.940Z,8.22
2019-03-05T07:23:05.293Z,8.37
2019-03-05T07:24:05.311Z,8.36
2019-03-05T07:25:05.328Z,8.36
2019-03-05T07:26:05.343Z,8.34
2019-03-05T07:27:05.366Z,8.45
2019-03-05T07:28:05.383Z,8.52
2019-03-05T07:29:05.395Z,8.44
2019-03-05T07:30:05.513Z,8.63
2019-03-05T07:31:05.458Z,8.56
2019-03-05T07:32:05.467Z,8.77
2019-03-05T07:34:20.144Z,8.98
2019-03-05T07:35:05.503Z,9.08
2019-03-05T07:36:05.520Z,9.1
2019-03-05T07:37:05.549Z,9.23
2019-03-05T07:38:05.573Z,9.29
2019-03-05T07:39:05.574Z,9.36
2019-03-05T07:40:05.593Z,9.46
2019-03-05T07:41:05.611Z,9.43
2019-03-05T07:42:05.645Z,9.64
2019-03-05T07:43:05.654Z,9.79
2019-03-05T07:44:05.432Z,9.79
2019-03-05T07:45:20.358Z,9.69
2019-03-05T07:46:05.719Z,9.65
2019-03-05T07:47:05.738Z,9.61
2019-03-05T07:48:05.752Z,9.57
2019-03-05T07:49:05.774Z,9.57
2019-03-05T07:50:05.793Z,9.54
2019-03-05T07:51:20.472Z,9.69
2019-03-05T07:52:05.828Z,9.68
2019-03-05T07:53:05.853Z,9.69
2019-03-05T07:54:20.533Z,9.71
2019-03-05T07:55:17.914Z,9.61
2019-03-05T07:56:05.935Z,9.54
2019-03-05T07:57:05.940Z,9.46
2019-03-05T07:59:05.968Z,9.33
2019-03-05T08:00:07.923Z,9.28
2019-03-05T08:01:06.074Z,9.28
2019-03-05T08:02:06.023Z,9.28
2019-03-05T08:03:06.044Z,9.31
2019-03-05T08:04:06.066Z,9.4
2019-03-05T08:05:06.083Z,9.4
2019-03-05T08:06:05.863Z,9.48
2019-03-05T08:07:06.123Z,9.46
2019-03-05T08:08:06.140Z,9.57
2019-03-05T08:09:06.159Z,9.68
2019-03-05T08:10:20.852Z,9.94
2019-03-05T08:11:06.197Z,9.97
2019-03-05T08:12:06.222Z,9.99
2019-03-05T08:13:06.239Z,9.89
2019-03-05T08:14:06.262Z,9.87
2019-03-05T08:15:06.311Z,9.84
2019-03-05T08:16:07.595Z,9.79
2019-03-05T08:17:06.315Z,9.76
2019-03-05T08:18:06.334Z,9.61
2019-03-05T08:20:06.368Z,9.36
2019-03-05T08:21:06.390Z,9.4
2019-03-05T08:22:08.660Z,9.35
2019-03-05T08:23:21.087Z,9.38
2019-03-05T08:26:21.142Z,9.36
2019-03-05T08:27:06.510Z,9.28
2019-03-05T08:28:06.533Z,9.21
2019-03-05T08:29:07.770Z,9.33
2019-03-05T08:30:33.116Z,9.42
2019-03-05T08:31:06.581Z,9.35
2019-03-05T08:32:06.588Z,9.39
2019-03-05T08:34:06.631Z,9.6
2019-03-05T08:35:06.406Z,9.54
2019-03-05T08:36:06.667Z,9.61
2019-03-05T08:37:06.681Z,9.66
2019-03-05T08:38:06.706Z,9.78
2019-03-05T08:39:06.725Z,9.74
2019-03-05T08:40:06.805Z,9.66
2019-03-05T08:41:06.816Z,9.57
2019-03-05T08:42:21.189Z,9.56
2019-03-05T08:43:06.788Z,9.53
2019-03-05T08:44:06.809Z,9.58
2019-03-05T08:45:06.835Z,9.64
2019-03-05T08:46:06.848Z,9.56
2019-03-05T08:47:06.887Z,9.61
2019-03-05T08:48:06.877Z,9.57
2019-03-05T08:50:06.933Z,9.58
2019-03-05T08:51:06.950Z,9.78
2019-03-05T08:53:06.984Z,10.08
2019-03-05T08:54:21.650Z,10.15
2019-03-05T08:55:07.028Z,10.05
2019-03-05T08:56:07.035Z,10.2
2019-03-05T08:58:06.817Z,10.29
2019-03-05T09:00:07.115Z,10.4
2019-03-05T09:01:07.118Z,10.44
2019-03-05T09:02:07.141Z,10.61
2019-03-05T09:03:07.213Z,10.63
2019-03-05T09:05:07.214Z,10.51
2019-03-05T09:06:07.214Z,10.51
2019-03-05T09:07:07.234Z,10.47
2019-03-05T09:09:07.275Z,10.59
2019-03-05T09:10:07.044Z,10.68
2019-03-05T09:11:07.322Z,10.76
2019-03-05T09:12:07.378Z,10.84
2019-03-05T09:13:07.399Z,10.96
2019-03-05T09:14:07.374Z,11.09
2019-03-05T09:15:07.392Z,11.1
2019-03-05T09:16:07.415Z,11.11
2019-03-05T09:17:07.435Z,11.19
2019-03-05T09:18:07.461Z,11.1
2019-03-05T09:19:07.472Z,11.03
2019-03-05T09:21:07.510Z,10.61
2019-03-05T09:22:07.553Z,10.71
2019-03-05T09:23:07.555Z,10.47
2019-03-05T09:24:22.237Z,10.29
2019-03-05T09:25:07.591Z,10.3
2019-03-05T09:26:07.613Z,10.32
2019-03-05T09:27:07.633Z,10.27
2019-03-05T09:28:09.784Z,10.23
2019-03-05T09:29:22.336Z,10.3
2019-03-05T09:30:07.694Z,10.27
2019-03-05T09:31:07.706Z,10.25
2019-03-05T09:33:07.756Z,10.33
2019-03-05T09:34:07.763Z,10.27
2019-03-05T09:35:07.783Z,10.34
2019-03-05T09:36:07.804Z,10.41
2019-03-05T09:37:07.842Z,10.25
2019-03-05T09:38:07.594Z,10.34
2019-03-05T09:39:08.096Z,10.25
2019-03-05T09:40:07.893Z,10.17
2019-03-05T09:41:07.917Z,10.12
2019-03-05T09:42:07.916Z,10.09
2019-03-05T09:43:07.940Z,10.08
2019-03-05T09:44:07.953Z,10.17
2019-03-05T09:45:22.635Z,10.04
2019-03-05T09:46:08.091Z,10.17
2019-03-05T09:47:07.759Z,10.05
2019-03-05T09:48:08.130Z,9.76
2019-03-05T09:49:08.046Z,9.75
2019-03-05T09:50:08.068Z,9.69
2019-03-05T09:51:08.173Z,9.71
2019-03-05T09:52:08.112Z,9.69
2019-03-05T09:53:08.119Z,9.51
2019-03-05T09:54:08.140Z,9.65
2019-03-05T09:55:08.162Z,9.68
2019-03-05T09:56:08.180Z,9.79
2019-03-05T09:57:08.191Z,9.74
2019-03-05T09:58:13.289Z,9.74
2019-03-05T09:59:08.233Z,9.79
2019-03-05T10:00:08.247Z,9.71
2019-03-05T10:01:22.928Z,9.58
2019-03-05T10:02:08.285Z,9.66
2019-03-05T10:03:08.311Z,9.68
2019-03-05T10:04:08.324Z,9.69
2019-03-05T10:05:08.339Z,9.48
2019-03-05T10:06:08.364Z,9.47
2019-03-05T10:07:18.299Z,9.47
2019-03-05T10:08:08.395Z,9.54
2019-03-05T10:09:08.423Z,9.64
2019-03-05T10:10:08.455Z,9.72
2019-03-05T10:11:08.446Z,9.66
2019-03-05T10:12:08.469Z,9.79
2019-03-05T10:13:09.343Z,9.83
2019-03-05T10:14:08.504Z,9.78
2019-03-05T10:15:08.522Z,9.69
2019-03-05T10:16:08.544Z,9.65
2019-03-05T10:17:23.220Z,9.64
2019-03-05T10:18:17.453Z,9.81
2019-03-05T10:19:09.373Z,9.84
2019-03-05T10:20:08.613Z,9.84
2019-03-05T10:21:08.634Z,9.87
2019-03-05T10:22:08.647Z,9.86
2019-03-05T10:23:23.353Z,9.87
2019-03-05T10:24:15.340Z,9.9
2019-03-05T10:25:12.909Z,9.9
2019-03-05T10:26:10.520Z,10.01
2019-03-05T10:27:08.781Z,10.18
2019-03-05T10:28:23.425Z,10.17
2019-03-05T10:29:08.778Z,10.17
2019-03-05T10:30:24.937Z,10.12
2019-03-05T10:31:08.820Z,10.09
2019-03-05T10:32:23.502Z,10.22
2019-03-05T10:33:08.861Z,10.32
2019-03-05T10:35:08.891Z,10.66
2019-03-05T10:37:21.405Z,10.88
2019-03-05T10:38:08.949Z,10.86
2019-03-05T10:39:08.970Z,10.85
2019-03-05T10:41:09.011Z,10.71
2019-03-05T10:42:09.027Z,10.66
2019-03-05T10:43:13.471Z,10.63
2019-03-05T10:44:09.087Z,10.51
2019-03-05T10:45:23.747Z,10.66
2019-03-05T10:46:09.107Z,10.67
2019-03-05T10:47:09.125Z,10.73
2019-03-05T10:48:09.157Z,10.88
2019-03-05T10:49:09.168Z,10.94
2019-03-05T10:51:09.218Z,11.27
2019-03-05T10:52:09.219Z,11.25
2019-03-05T10:53:09.038Z,11.11
2019-03-05T10:54:09.257Z,11.02
2019-03-05T10:55:09.279Z,10.91
2019-03-05T10:56:09.049Z,10.91
2019-03-05T10:57:09.312Z,10.97
2019-03-05T10:58:09.335Z,10.97
2019-03-05T10:59:10.299Z,11.09
2019-03-05T11:00:09.372Z,10.99
2019-03-05T11:02:09.413Z,11.18
2019-03-05T11:03:09.431Z,11.17
2019-03-05T11:04:24.109Z,11.09
2019-03-05T11:05:09.468Z,11.15
2019-03-05T11:06:09.496Z,11.04
2019-03-05T11:07:09.504Z,10.92
2019-03-05T11:08:09.573Z,11.09
2019-03-05T11:10:09.562Z,11.22
2019-03-05T11:11:17.877Z,11.18
2019-03-05T11:12:09.607Z,10.97
2019-03-05T11:13:09.373Z,10.92
2019-03-05T11:14:24.352Z,10.73
2019-03-05T11:15:09.658Z,10.73
2019-03-05T11:16:30.579Z,10.7
2019-03-05T11:17:09.702Z,10.67
2019-03-05T11:18:09.715Z,10.68
2019-03-05T11:19:09.735Z,10.67
2019-03-05T11:20:24.416Z,10.78
2019-03-05T11:21:09.782Z,10.71
2019-03-05T11:22:09.906Z,10.71
2019-03-05T11:23:11.636Z,10.64
2019-03-05T11:24:09.833Z,10.55
2019-03-05T11:25:09.846Z,10.53
2019-03-05T11:26:09.866Z,10.55
2019-03-05T11:27:09.884Z,10.64
2019-03-05T11:28:09.914Z,10.73
2019-03-05T11:29:24.588Z,10.6
2019-03-05T11:30:09.945Z,10.52
2019-03-05T11:31:09.958Z,10.45
2019-03-05T11:32:09.979Z,10.33
2019-03-05T11:33:10.013Z,10.47
2019-03-05T11:34:10.013Z,10.51
2019-03-05T11:35:10.037Z,10.56
2019-03-05T11:36:24.714Z,10.74
2019-03-05T11:37:10.072Z,10.84
2019-03-05T11:38:10.092Z,10.99
2019-03-05T11:39:10.108Z,10.91
2019-03-05T11:40:20.484Z,10.94
2019-03-05T11:41:10.149Z,10.92
2019-03-05T11:42:10.165Z,10.91
2019-03-05T11:43:10.182Z,10.92
2019-03-05T11:44:25.226Z,10.99
2019-03-05T11:45:14.206Z,10.97
2019-03-05T11:47:10.258Z,11
2019-03-05T11:48:24.938Z,10.86
2019-03-05T11:49:10.299Z,10.91
2019-03-05T11:52:25.012Z,10.84
2019-03-05T11:53:10.373Z,10.88
2019-03-05T11:54:10.394Z,10.74
2019-03-05T11:55:10.404Z,10.71
2019-03-05T11:56:10.522Z,10.7
2019-03-05T11:57:10.442Z,10.7
2019-03-05T11:58:10.470Z,10.68
2019-03-05T11:59:10.479Z,10.47
2019-03-05T12:00:10.497Z,10.56
2019-03-05T12:01:10.515Z,10.51
2019-03-05T12:02:21.372Z,10.61
2019-03-05T12:03:10.560Z,10.51
2019-03-05T12:04:10.638Z,10.56
2019-03-05T12:05:25.255Z,10.51
2019-03-05T12:07:25.291Z,10.61
2019-03-05T12:08:10.647Z,10.56
2019-03-05T12:09:10.668Z,10.6
2019-03-05T12:10:10.683Z,10.51
2019-03-05T12:11:10.709Z,10.41
2019-03-05T12:12:10.729Z,10.4
2019-03-05T12:13:10.762Z,10.26
2019-03-05T12:14:10.762Z,10.17
2019-03-05T12:15:10.799Z,10.18
2019-03-05T12:18:25.627Z,10.01
2019-03-05T12:19:10.864Z,9.96
2019-03-05T12:20:25.530Z,10.17
2019-03-05T12:21:10.885Z,10.18
2019-03-05T12:22:10.912Z,10.25
2019-03-05T12:23:26.239Z,10.23
2019-03-05T12:24:10.940Z,10.25
2019-03-05T12:25:10.965Z,10.27
2019-03-05T12:26:10.977Z,10.18
2019-03-05T12:27:10.998Z,10.22
2019-03-05T12:28:15.314Z,10.3
2019-03-05T12:29:11.032Z,10.47
2019-03-05T12:30:11.054Z,10.51
2019-03-05T12:32:11.091Z,10.52
2019-03-05T12:33:11.580Z,10.48
2019-03-05T12:34:11.130Z,10.41
2019-03-05T12:35:11.146Z,10.34
2019-03-05T12:36:25.823Z,10.51
2019-03-05T12:37:11.186Z,10.45
2019-03-05T12:38:11.202Z,10.67
2019-03-05T12:39:25.878Z,10.73
2019-03-05T12:40:11.235Z,10.85
2019-03-05T12:41:11.255Z,10.94
2019-03-05T12:42:11.272Z,10.99
2019-03-05T12:43:11.294Z,11.06
2019-03-05T12:44:11.313Z,11.11
2019-03-05T12:46:11.348Z,11.18
2019-03-05T12:47:11.364Z,11.17
2019-03-05T12:48:11.390Z,11.21
2019-03-05T12:50:26.085Z,10.94
2019-03-05T12:51:11.446Z,10.97
2019-03-05T12:52:11.461Z,11.02
2019-03-05T12:53:11.483Z,11.06
2019-03-05T12:54:11.496Z,11.09
2019-03-05T12:55:26.182Z,11.04
2019-03-05T12:56:11.642Z,11.07
2019-03-05T12:57:11.562Z,10.99
2019-03-05T12:58:11.572Z,10.88
2019-03-05T12:59:11.588Z,10.99
2019-03-05T13:00:11.646Z,11
2019-03-05T13:01:11.663Z,11.02
2019-03-05T13:02:11.664Z,11.14
2019-03-05T13:03:11.670Z,11.17
2019-03-05T13:04:11.781Z,11.25
2019-03-05T13:05:11.705Z,11.37
2019-03-05T13:06:11.722Z,11.44
2019-03-05T13:07:14.094Z,11.42
2019-03-05T13:08:28.593Z,11.35
2019-03-05T13:09:13.470Z,11.25
2019-03-05T13:10:11.794Z,11.35
2019-03-05T13:11:26.479Z,11.24
2019-03-05T13:12:11.834Z,11.22
2019-03-05T13:13:16.618Z,11.09
2019-03-05T13:14:16.732Z,11.06
2019-03-05T13:15:11.889Z,10.96
2019-03-05T13:16:13.815Z,10.91
2019-03-05T13:17:11.927Z,10.64
2019-03-05T13:18:14.163Z,10.3
2019-03-05T13:19:14.495Z,10.17
2019-03-05T13:20:11.988Z,9.79
2019-03-05T13:21:12.571Z,9.47
2019-03-05T13:22:12.028Z,9.47
2019-03-05T13:23:15.206Z,9.46
2019-03-05T13:24:16.201Z,9.46
2019-03-05T13:25:12.080Z,9.46
2019-03-05T13:26:13.686Z,9.48
2019-03-05T13:27:28.013Z,9.48
2019-03-05T13:28:12.134Z,9.36
2019-03-05T13:29:14.302Z,9.39
2019-03-05T13:30:12.964Z,9.38
2019-03-05T13:31:12.186Z,9.33
2019-03-05T13:32:12.206Z,9.38
2019-03-05T13:33:12.228Z,9.47
2019-03-05T13:34:14.024Z,9.54
2019-03-05T13:35:14.139Z,9.61
2019-03-05T13:36:19.001Z,9.66
2019-03-05T13:37:28.434Z,9.65
2019-03-05T13:38:14.219Z,9.65
2019-03-05T13:39:12.378Z,9.72
2019-03-05T13:40:12.354Z,9.68
2019-03-05T13:41:15.495Z,9.72
2019-03-05T13:42:28.986Z,9.72
2019-03-05T13:43:12.416Z,9.75
2019-03-05T13:44:12.435Z,9.66
2019-03-05T13:45:14.192Z,9.6
2019-03-05T13:46:12.484Z,9.57
2019-03-05T13:47:13.506Z,9.69
2019-03-05T13:48:14.637Z,9.69
2019-03-05T13:49:14.340Z,9.66
2019-03-05T13:50:13.723Z,9.71
2019-03-05T13:51:12.565Z,9.69
2019-03-05T13:52:12.585Z,9.79
2019-03-05T13:53:25.090Z,9.89
2019-03-05T13:54:14.467Z,9.93
2019-03-05T13:55:12.629Z,9.9
2019-03-05T13:56:14.498Z,9.93
2019-03-05T13:57:15.233Z,9.81
2019-03-05T13:58:12.694Z,9.75
2019-03-05T13:59:12.707Z,9.78
2019-03-05T14:00:12.736Z,9.72
2019-03-05T14:01:12.767Z,9.86
2019-03-05T14:02:12.764Z,9.84
2019-03-05T14:03:12.779Z,9.94
2019-03-05T14:04:12.800Z,10.04
2019-03-05T14:05:15.585Z,10.15
2019-03-05T14:06:12.884Z,10.18
2019-03-05T14:07:27.522Z,10.25
2019-03-05T14:09:13.929Z,10.25
2019-03-05T14:10:12.929Z,10.26
2019-03-05T14:11:12.977Z,10.14
2019-03-05T14:12:13.010Z,10.04
2019-03-05T14:13:12.996Z,10.05
2019-03-05T14:14:27.671Z,9.96
2019-03-05T14:15:13.023Z,9.9
2019-03-05T14:16:13.086Z,9.84
2019-03-05T14:17:13.099Z,9.9